createdAt,value
2018-07-26T00:00:35.714Z,0.00
2018-07-26T00:01:35.739Z,0.00
2018-07-26T00:02:35.699Z,0.00
2018-07-26T00:03:35.769Z,0.00
2018-07-26T00:04:35.692Z,0.00
2018-07-26T00:05:35.662Z,0.00
2018-07-26T00:06:35.654Z,0.00
2018-07-26T00:07:35.672Z,0.00
2018-07-26T00:08:35.635Z,0.00
2018-07-26T00:09:35.623Z,0.00
2018-07-26T00:10:35.608Z,0.00
2018-07-26T00:11:35.632Z,0.00
2018-07-26T00:12:35.589Z,0.00
2018-07-26T00:13:35.578Z,0.00
2018-07-26T00:14:35.594Z,0.00
2018-07-26T00:15:35.561Z,0.00
2018-07-26T00:16:35.544Z,0.00
2018-07-26T00:17:35.566Z,0.00
2018-07-26T00:18:35.522Z,0.00
2018-07-26T00:19:35.576Z,0.00
2018-07-26T00:20:35.501Z,0.00
2018-07-26T00:21:35.506Z,0.00
2018-07-26T00:22:35.508Z,0.00
2018-07-26T00:23:35.467Z,0.00
2018-07-26T00:24:35.484Z,0.00
2018-07-26T00:25:35.473Z,0.00
2018-07-26T00:26:35.437Z,0.00
2018-07-26T00:27:35.502Z,0.00
2018-07-26T00:28:35.445Z,0.00
2018-07-26T00:29:35.401Z,0.00
2018-07-26T00:30:35.426Z,0.00
2018-07-26T00:31:35.383Z,0.00
2018-07-26T00:32:35.374Z,0.00
2018-07-26T00:33:35.358Z,0.00
2018-07-26T00:34:35.379Z,0.00
2018-07-26T00:35:35.335Z,0.00
2018-07-26T00:36:35.327Z,0.00
2018-07-26T00:37:35.319Z,0.00
2018-07-26T00:38:35.310Z,0.00
2018-07-26T00:39:35.316Z,0.00
2018-07-26T00:40:35.315Z,0.00
2018-07-26T00:41:35.281Z,0.00
2018-07-26T00:42:35.306Z,0.00
2018-07-26T00:43:35.284Z,0.00
2018-07-26T00:44:35.238Z,0.00
2018-07-26T00:45:35.232Z,0.00
2018-07-26T00:46:35.221Z,0.00
2018-07-26T00:47:35.239Z,0.00
2018-07-26T00:48:35.201Z,0.00
2018-07-26T00:49:35.209Z,0.00
2018-07-26T00:50:35.203Z,0.00
2018-07-26T00:51:35.170Z,0.00
2018-07-26T00:52:35.153Z,0.00
2018-07-26T00:53:35.145Z,0.00
2018-07-26T00:54:35.136Z,0.00
2018-07-26T00:55:35.162Z,0.00
2018-07-26T00:56:35.119Z,0.00
2018-07-26T00:57:35.107Z,0.00
2018-07-26T00:58:35.084Z,0.00
2018-07-26T00:59:35.123Z,0.00
2018-07-26T01:00:35.110Z,0.00
2018-07-26T01:01:35.063Z,0.00
2018-07-26T01:02:35.046Z,0.00
2018-07-26T01:03:35.037Z,0.00
2018-07-26T01:04:35.066Z,0.00
2018-07-26T01:05:35.012Z,0.00
2018-07-26T01:06:35.031Z,0.00
2018-07-26T01:07:34.989Z,0.00
2018-07-26T01:08:34.987Z,0.00
2018-07-26T01:09:35.011Z,0.00
2018-07-26T01:10:34.965Z,0.00
2018-07-26T01:11:35.000Z,0.00
2018-07-26T01:12:34.934Z,0.00
2018-07-26T01:13:34.922Z,0.00
2018-07-26T01:14:34.916Z,0.00
2018-07-26T01:15:34.903Z,0.00
2018-07-26T01:16:34.924Z,0.00
2018-07-26T01:17:34.879Z,0.00
2018-07-26T01:18:34.870Z,0.00
2018-07-26T01:19:34.861Z,0.00
2018-07-26T01:20:34.878Z,0.00
2018-07-26T01:21:34.835Z,0.00
2018-07-26T01:22:34.827Z,0.00
2018-07-26T01:23:34.855Z,0.00
2018-07-26T01:24:34.833Z,0.00
2018-07-26T01:25:34.795Z,0.00
2018-07-26T01:26:34.817Z,0.00
2018-07-26T01:27:34.766Z,0.00
2018-07-26T01:28:34.762Z,0.00
2018-07-26T01:29:34.760Z,0.00
2018-07-26T01:30:34.744Z,0.00
2018-07-26T01:31:34.758Z,0.00
2018-07-26T01:32:34.720Z,0.00
2018-07-26T01:33:34.704Z,0.00
2018-07-26T01:34:34.721Z,0.00
2018-07-26T01:35:34.685Z,0.00
2018-07-26T01:36:34.715Z,0.00
2018-07-26T01:37:34.657Z,0.00
2018-07-26T01:38:34.651Z,0.00
2018-07-26T01:39:34.635Z,0.00
2018-07-26T01:40:34.655Z,0.00
2018-07-26T01:41:34.622Z,0.00
2018-07-26T01:42:34.669Z,0.00
2018-07-26T01:43:34.623Z,0.00
2018-07-26T01:44:34.590Z,0.00
2018-07-26T01:45:34.605Z,0.00
2018-07-26T01:46:34.562Z,0.00
2018-07-26T01:47:34.576Z,0.00
2018-07-26T01:48:34.538Z,0.00
2018-07-26T01:49:34.523Z,0.00
2018-07-26T01:50:34.513Z,0.00
2018-07-26T01:51:34.501Z,0.00
2018-07-26T01:52:34.514Z,0.00
2018-07-26T01:53:34.516Z,0.00
2018-07-26T01:54:34.476Z,0.00
2018-07-26T01:55:34.455Z,0.00
2018-07-26T01:56:34.449Z,0.00
2018-07-26T01:57:34.481Z,0.00
2018-07-26T01:58:34.429Z,0.00
2018-07-26T01:59:34.444Z,0.00
2018-07-26T02:00:34.409Z,0.00
2018-07-26T02:01:34.409Z,0.00
2018-07-26T02:02:34.388Z,0.00
2018-07-26T02:03:34.379Z,0.00
2018-07-26T02:04:34.407Z,0.00
2018-07-26T02:05:34.349Z,0.00
2018-07-26T02:06:34.391Z,0.00
2018-07-26T02:07:34.332Z,0.00
2018-07-26T02:08:34.321Z,0.00
2018-07-26T02:09:34.336Z,0.00
2018-07-26T02:10:34.293Z,0.00
2018-07-26T02:11:34.286Z,0.00
2018-07-26T02:12:34.272Z,0.00
2018-07-26T02:13:34.259Z,0.00
2018-07-26T02:14:34.281Z,0.00
2018-07-26T02:15:34.243Z,0.00
2018-07-26T02:16:34.237Z,0.00
2018-07-26T02:17:34.223Z,0.00
2018-07-26T02:18:34.245Z,0.00
2018-07-26T02:19:34.198Z,0.00
2018-07-26T02:20:34.187Z,0.00
2018-07-26T02:21:34.182Z,0.00
2018-07-26T02:22:34.232Z,0.00
2018-07-26T02:23:34.177Z,0.00
2018-07-26T02:24:34.138Z,0.00
2018-07-26T02:25:34.156Z,0.00
2018-07-26T02:26:34.117Z,0.00
2018-07-26T02:27:34.140Z,0.00
2018-07-26T02:28:34.095Z,0.00
2018-07-26T02:29:34.108Z,0.00
2018-07-26T02:30:34.072Z,0.00
2018-07-26T02:31:34.066Z,0.00
2018-07-26T02:32:34.070Z,0.00
2018-07-26T02:33:34.067Z,0.00
2018-07-26T02:34:34.031Z,0.00
2018-07-26T02:35:34.038Z,0.00
2018-07-26T02:36:34.008Z,0.00
2018-07-26T02:37:34.010Z,0.00
2018-07-26T02:38:34.088Z,0.00
2018-07-26T02:39:34.006Z,0.00
2018-07-26T02:40:34.002Z,0.00
2018-07-26T02:41:33.960Z,0.00
2018-07-26T02:42:33.980Z,0.00
2018-07-26T02:43:33.934Z,0.00
2018-07-26T02:44:33.948Z,0.00
2018-07-26T02:45:33.913Z,0.00
2018-07-26T02:46:33.952Z,0.00
2018-07-26T02:47:33.926Z,0.00
2018-07-26T02:48:33.910Z,0.00
2018-07-26T02:49:33.871Z,0.00
2018-07-26T02:50:33.863Z,0.00
2018-07-26T02:51:33.872Z,0.00
2018-07-26T02:52:33.865Z,0.00
2018-07-26T02:53:33.866Z,0.00
2018-07-26T02:54:33.817Z,0.00
2018-07-26T02:55:33.806Z,0.00
2018-07-26T02:56:33.789Z,0.00
2018-07-26T02:57:33.809Z,0.00
2018-07-26T02:58:33.803Z,0.00
2018-07-26T02:59:33.763Z,0.00
2018-07-26T03:00:33.751Z,0.00
2018-07-26T03:01:33.744Z,0.00
2018-07-26T03:02:33.737Z,0.00
2018-07-26T03:03:33.745Z,0.00
2018-07-26T03:04:33.705Z,0.00
2018-07-26T03:05:33.701Z,0.00
2018-07-26T03:06:33.686Z,0.00
2018-07-26T03:07:33.676Z,0.00
2018-07-26T03:08:33.694Z,0.00
2018-07-26T03:09:33.681Z,0.00
2018-07-26T03:10:33.639Z,0.00
2018-07-26T03:11:33.633Z,0.00
2018-07-26T03:12:33.645Z,0.00
2018-07-26T03:13:33.605Z,0.00
2018-07-26T03:14:33.626Z,0.00
2018-07-26T03:15:33.594Z,0.00
2018-07-26T03:16:33.573Z,0.00
2018-07-26T03:17:33.563Z,4.00
2018-07-26T03:18:33.587Z,4.00
2018-07-26T03:19:33.551Z,0.00
2018-07-26T03:20:33.533Z,0.00
2018-07-26T03:21:33.526Z,4.00
2018-07-26T03:22:33.555Z,4.00
2018-07-26T03:23:33.505Z,4.00
2018-07-26T03:24:33.488Z,4.00
2018-07-26T03:25:33.480Z,4.00
2018-07-26T03:26:33.466Z,4.00
2018-07-26T03:27:33.491Z,8.00
2018-07-26T03:28:33.445Z,8.00
2018-07-26T03:29:33.457Z,8.00
2018-07-26T03:30:33.422Z,12.00
2018-07-26T03:31:33.482Z,12.00
2018-07-26T03:32:33.409Z,12.00
2018-07-26T03:33:33.420Z,16.00
2018-07-26T03:34:33.383Z,16.00
2018-07-26T03:35:33.371Z,20.00
2018-07-26T03:36:33.354Z,20.00
2018-07-26T03:37:33.357Z,24.00
2018-07-26T03:38:33.364Z,28.00
2018-07-26T03:39:33.357Z,24.00
2018-07-26T03:40:33.313Z,32.00
2018-07-26T03:41:33.301Z,32.00
2018-07-26T03:42:33.288Z,36.00
2018-07-26T03:43:33.359Z,40.00
2018-07-26T03:44:33.267Z,44.00
2018-07-26T03:45:33.284Z,48.00
2018-07-26T03:46:33.251Z,52.00
2018-07-26T03:47:33.237Z,56.00
2018-07-26T03:48:33.252Z,60.00
2018-07-26T03:49:33.214Z,64.00
2018-07-26T03:50:33.207Z,68.00
2018-07-26T03:51:33.228Z,76.00
2018-07-26T03:52:33.197Z,80.00
2018-07-26T03:53:33.170Z,84.00
2018-07-26T03:54:33.161Z,92.00
2018-07-26T03:55:33.176Z,96.00
2018-07-26T03:56:33.149Z,104.00
2018-07-26T03:57:33.160Z,108.00
2018-07-26T03:58:33.116Z,116.00
2018-07-26T03:59:33.111Z,120.00
2018-07-26T04:00:33.092Z,128.00
2018-07-26T04:01:33.120Z,136.00
2018-07-26T04:02:33.071Z,140.00
2018-07-26T04:03:33.065Z,148.00
2018-07-26T04:04:33.052Z,156.00
2018-07-26T04:05:33.057Z,160.00
2018-07-26T04:06:33.060Z,172.00
2018-07-26T04:07:33.021Z,180.00
2018-07-26T04:08:33.118Z,184.00
2018-07-26T04:09:32.995Z,196.00
2018-07-26T04:10:32.985Z,204.00
2018-07-26T04:11:32.979Z,208.00
2018-07-26T04:12:32.999Z,216.00
2018-07-26T04:13:32.952Z,228.00
2018-07-26T04:14:32.943Z,236.00
2018-07-26T04:15:32.932Z,244.00
2018-07-26T04:16:32.920Z,252.00
2018-07-26T04:17:32.954Z,256.00
2018-07-26T04:18:32.895Z,268.00
2018-07-26T04:19:32.885Z,276.00
2018-07-26T04:20:32.885Z,284.00
2018-07-26T04:21:32.879Z,292.00
2018-07-26T04:22:32.886Z,304.00
2018-07-26T04:23:32.847Z,312.00
2018-07-26T04:24:32.834Z,320.00
2018-07-26T04:25:32.873Z,328.00
2018-07-26T04:26:32.809Z,340.00
2018-07-26T04:27:32.819Z,348.00
2018-07-26T04:28:32.787Z,360.00
2018-07-26T04:29:32.778Z,356.00
2018-07-26T04:30:32.794Z,376.00
2018-07-26T04:31:32.755Z,388.00
2018-07-26T04:32:32.749Z,396.00
2018-07-26T04:33:32.735Z,408.00
2018-07-26T04:34:32.724Z,416.00
2018-07-26T04:35:32.772Z,432.00
2018-07-26T04:36:32.802Z,440.00
2018-07-26T04:37:32.687Z,448.00
2018-07-26T04:38:32.679Z,460.00
2018-07-26T04:39:32.661Z,464.00
2018-07-26T04:40:32.681Z,476.00
2018-07-26T04:41:32.684Z,484.00
2018-07-26T04:42:32.633Z,496.00
2018-07-26T04:43:32.618Z,500.00
2018-07-26T04:44:32.611Z,508.00
2018-07-26T04:45:32.598Z,516.00
2018-07-26T04:46:32.626Z,528.00
2018-07-26T04:47:32.579Z,536.00
2018-07-26T04:48:32.572Z,544.00
2018-07-26T04:49:32.553Z,556.00
2018-07-26T04:50:32.582Z,564.00
2018-07-26T04:51:32.546Z,572.00
2018-07-26T04:52:32.522Z,584.00
2018-07-26T04:53:32.514Z,592.00
2018-07-26T04:54:32.573Z,600.00
2018-07-26T04:55:32.498Z,612.00
2018-07-26T04:56:32.478Z,620.00
2018-07-26T04:57:32.473Z,624.00
2018-07-26T04:58:32.491Z,636.00
2018-07-26T04:59:32.449Z,644.00
2018-07-26T05:00:32.441Z,652.00
2018-07-26T05:01:32.427Z,660.00
2018-07-26T05:02:32.454Z,668.00
2018-07-26T05:03:32.407Z,680.00
2018-07-26T05:04:32.426Z,668.00
2018-07-26T05:05:32.395Z,696.00
2018-07-26T05:06:32.378Z,704.00
2018-07-26T05:07:32.404Z,712.00
2018-07-26T05:08:32.385Z,716.00
2018-07-26T05:09:32.345Z,724.00
2018-07-26T05:10:32.324Z,732.00
2018-07-26T05:11:32.321Z,736.00
2018-07-26T05:12:32.309Z,744.00
2018-07-26T05:13:32.329Z,752.00
2018-07-26T05:14:32.292Z,756.00
2018-07-26T05:15:32.272Z,764.00
2018-07-26T05:16:32.264Z,772.00
2018-07-26T05:17:32.284Z,780.00
2018-07-26T05:18:32.348Z,784.00
2018-07-26T05:19:32.229Z,792.00
2018-07-26T05:20:32.223Z,800.00
2018-07-26T05:21:32.212Z,804.00
2018-07-26T05:22:32.239Z,812.00
2018-07-26T05:23:32.226Z,820.00
2018-07-26T05:24:32.212Z,828.00
2018-07-26T05:25:32.164Z,832.00
2018-07-26T05:26:32.164Z,832.00
2018-07-26T05:27:32.146Z,836.00
2018-07-26T05:28:32.157Z,844.00
2018-07-26T05:29:32.122Z,848.00
2018-07-26T05:30:32.138Z,852.00
2018-07-26T05:31:32.128Z,864.00
2018-07-26T05:32:32.093Z,868.00
2018-07-26T05:33:32.085Z,872.00
2018-07-26T05:34:32.107Z,880.00
2018-07-26T05:35:32.060Z,884.00
2018-07-26T05:36:32.048Z,892.00
2018-07-26T05:37:32.035Z,900.00
2018-07-26T05:38:32.055Z,904.00
2018-07-26T05:39:32.024Z,912.00
2018-07-26T05:40:32.015Z,920.00
2018-07-26T05:41:31.990Z,924.00
2018-07-26T05:42:31.983Z,932.00
2018-07-26T05:43:32.002Z,936.00
2018-07-26T05:44:31.959Z,940.00
2018-07-26T05:45:31.949Z,916.00
2018-07-26T05:46:31.939Z,948.00
2018-07-26T05:47:31.973Z,960.00
2018-07-26T05:48:31.913Z,972.00
2018-07-26T05:49:31.908Z,976.00
2018-07-26T05:50:31.896Z,984.00
2018-07-26T05:51:31.881Z,984.00
2018-07-26T05:52:31.930Z,992.00
2018-07-26T05:53:31.859Z,992.00
2018-07-26T05:54:31.851Z,1000.00
2018-07-26T05:55:31.853Z,1008.00
2018-07-26T05:56:31.826Z,976.00
2018-07-26T05:57:31.841Z,960.00
2018-07-26T05:58:31.803Z,968.00
2018-07-26T05:59:31.822Z,976.00
2018-07-26T06:00:31.829Z,972.00
2018-07-26T06:01:31.776Z,980.00
2018-07-26T06:02:31.763Z,984.00
2018-07-26T06:03:31.809Z,988.00
2018-07-26T06:04:31.747Z,992.00
2018-07-26T06:05:31.753Z,992.00
2018-07-26T06:06:31.717Z,992.00
2018-07-26T06:07:31.708Z,1000.00
2018-07-26T06:08:31.705Z,1004.00
2018-07-26T06:09:31.755Z,1012.00
2018-07-26T06:10:31.674Z,1020.00
2018-07-26T06:11:31.667Z,1040.00
2018-07-26T06:12:31.654Z,1024.00
2018-07-26T06:13:31.640Z,1040.00
2018-07-26T06:14:31.673Z,1068.00
2018-07-26T06:15:31.618Z,1104.00
2018-07-26T06:16:31.612Z,1124.00
2018-07-26T06:17:31.630Z,1116.00
2018-07-26T06:18:31.586Z,1108.00
2018-07-26T06:19:31.577Z,1128.00
2018-07-26T06:20:31.642Z,1132.00
2018-07-26T06:21:31.554Z,1172.00
2018-07-26T06:22:31.548Z,1248.00
2018-07-26T06:23:31.529Z,1348.00
2018-07-26T06:24:31.523Z,1444.00
2018-07-26T06:25:31.558Z,1444.00
2018-07-26T06:26:31.505Z,1408.00
2018-07-26T06:27:31.517Z,1420.00
2018-07-26T06:28:31.477Z,1452.00
2018-07-26T06:29:31.469Z,1484.00
2018-07-26T06:30:31.490Z,1532.00
2018-07-26T06:31:31.448Z,1536.00
2018-07-26T06:32:31.433Z,1524.00
2018-07-26T06:33:31.539Z,1472.00
2018-07-26T06:34:31.413Z,1472.00
2018-07-26T06:35:31.400Z,1556.00
2018-07-26T06:36:31.423Z,1644.00
2018-07-26T06:37:31.380Z,1656.00
2018-07-26T06:38:31.401Z,1540.00
2018-07-26T06:39:31.381Z,1504.00
2018-07-26T06:40:31.349Z,1500.00
2018-07-26T06:41:31.342Z,1488.00
2018-07-26T06:42:31.328Z,1488.00
2018-07-26T06:43:31.344Z,1516.00
2018-07-26T06:44:31.304Z,1532.00
2018-07-26T06:45:31.290Z,1540.00
2018-07-26T06:46:31.288Z,1564.00
2018-07-26T06:47:31.270Z,1616.00
2018-07-26T06:48:31.286Z,1708.00
2018-07-26T06:49:31.260Z,1804.00
2018-07-26T06:50:31.238Z,1860.00
2018-07-26T06:51:31.237Z,1892.00
2018-07-26T06:52:31.259Z,1948.00
2018-07-26T06:53:31.205Z,2076.00
2018-07-26T06:54:31.198Z,2220.00
2018-07-26T06:55:31.214Z,2388.00
2018-07-26T06:56:31.262Z,2520.00
2018-07-26T06:57:31.163Z,2620.00
2018-07-26T06:58:31.150Z,2704.00
2018-07-26T06:59:31.160Z,2788.00
2018-07-26T07:00:31.154Z,2884.00
2018-07-26T07:01:31.146Z,2996.00
2018-07-26T07:02:31.122Z,3068.00
2018-07-26T07:03:31.099Z,3064.00
2018-07-26T07:04:31.162Z,3044.00
2018-07-26T07:05:31.087Z,3048.00
2018-07-26T07:06:31.101Z,3064.00
2018-07-26T07:07:31.053Z,3072.00
2018-07-26T07:08:31.054Z,3056.00
2018-07-26T07:09:31.044Z,3052.00
2018-07-26T07:10:31.091Z,3096.00
2018-07-26T07:11:31.010Z,3184.00
2018-07-26T07:12:31.001Z,3300.00
2018-07-26T07:13:30.991Z,3340.00
2018-07-26T07:14:31.019Z,3348.00
2018-07-26T07:15:30.965Z,3276.00
2018-07-26T07:16:30.962Z,3136.00
2018-07-26T07:17:30.988Z,2968.00
2018-07-26T07:18:30.941Z,2844.00
2018-07-26T07:19:30.927Z,2756.00
2018-07-26T07:20:30.975Z,2740.00
2018-07-26T07:21:30.904Z,2792.00
2018-07-26T07:22:30.931Z,2860.00
2018-07-26T07:23:30.887Z,2876.00
2018-07-26T07:24:30.874Z,2804.00
2018-07-26T07:25:30.861Z,2628.00
2018-07-26T07:26:30.849Z,2424.00
2018-07-26T07:27:30.880Z,2288.00
2018-07-26T07:28:30.836Z,2272.00
2018-07-26T07:29:30.820Z,2344.00
2018-07-26T07:30:30.818Z,2416.00
2018-07-26T07:31:30.834Z,2420.00
2018-07-26T07:32:30.797Z,2356.00
2018-07-26T07:33:30.808Z,2292.00
2018-07-26T07:34:30.767Z,2328.00
2018-07-26T07:35:30.805Z,2524.00
2018-07-26T07:36:30.885Z,2780.00
2018-07-26T07:37:30.745Z,2932.00
2018-07-26T07:38:30.729Z,2912.00
2018-07-26T07:39:30.706Z,2720.00
2018-07-26T07:40:30.728Z,2460.00
2018-07-26T07:41:30.691Z,2288.00
2018-07-26T07:42:30.709Z,2280.00
2018-07-26T07:43:30.669Z,2376.00
2018-07-26T07:44:30.661Z,2448.00
2018-07-26T07:45:30.645Z,2428.00
2018-07-26T07:46:30.645Z,2332.00
2018-07-26T07:47:30.704Z,2244.00
2018-07-26T07:48:30.615Z,2240.00
2018-07-26T07:49:30.631Z,2308.00
2018-07-26T07:50:30.592Z,2372.00
2018-07-26T07:51:30.595Z,2360.00
2018-07-26T07:52:30.569Z,2268.00
2018-07-26T07:53:30.561Z,2124.00
2018-07-26T07:54:30.581Z,1968.00
2018-07-26T07:55:30.538Z,1840.00
2018-07-26T07:56:30.571Z,1744.00
2018-07-26T07:57:30.558Z,1696.00
2018-07-26T07:58:30.518Z,1748.00
2018-07-26T07:59:30.570Z,1768.00
2018-07-26T08:00:30.505Z,1628.00
2018-07-26T08:01:30.508Z,1564.00
2018-07-26T08:02:30.515Z,1488.00
2018-07-26T08:03:30.465Z,1480.00
2018-07-26T08:04:30.451Z,1444.00
2018-07-26T08:05:30.437Z,1416.00
2018-07-26T08:06:30.424Z,1456.00
2018-07-26T08:07:30.450Z,1392.00
2018-07-26T08:08:30.403Z,1488.00
2018-07-26T08:09:30.430Z,1540.00
2018-07-26T08:10:30.382Z,1572.00
2018-07-26T08:11:30.377Z,1532.00
2018-07-26T08:12:30.364Z,1536.00
2018-07-26T08:13:30.349Z,1456.00
2018-07-26T08:14:30.421Z,1424.00
2018-07-26T08:15:30.328Z,1356.00
2018-07-26T08:16:30.411Z,1328.00
2018-07-26T08:17:30.303Z,1324.00
2018-07-26T08:18:30.297Z,1332.00
2018-07-26T08:19:30.308Z,1376.00
2018-07-26T08:20:30.266Z,1464.00
2018-07-26T08:21:30.259Z,1516.00
2018-07-26T08:22:30.246Z,1516.00
2018-07-26T08:23:30.271Z,1560.00
2018-07-26T08:24:30.275Z,1636.00
2018-07-26T08:25:30.216Z,1720.00
2018-07-26T08:26:30.204Z,1792.00
2018-07-26T08:27:30.194Z,1820.00
2018-07-26T08:28:30.178Z,1724.00
2018-07-26T08:29:30.269Z,1608.00
2018-07-26T08:30:30.163Z,1724.00
2018-07-26T08:31:30.156Z,1896.00
2018-07-26T08:32:30.263Z,2136.00
2018-07-26T08:33:30.131Z,2188.00
2018-07-26T08:34:30.119Z,2224.00
2018-07-26T08:35:30.155Z,2208.00
2018-07-26T08:36:30.096Z,2212.00
2018-07-26T08:37:30.084Z,2184.00
2018-07-26T08:38:30.075Z,2128.00
2018-07-26T08:39:30.072Z,2056.00
2018-07-26T08:40:30.096Z,1968.00
2018-07-26T08:41:30.084Z,1912.00
2018-07-26T08:42:30.037Z,1904.00
2018-07-26T08:43:30.062Z,1940.00
2018-07-26T08:44:30.013Z,1996.00
2018-07-26T08:45:30.000Z,2100.00
2018-07-26T08:46:30.018Z,2252.00
2018-07-26T08:47:30.008Z,2340.00
2018-07-26T08:48:29.973Z,2336.00
2018-07-26T08:49:29.958Z,2360.00
2018-07-26T08:50:29.951Z,2452.00
2018-07-26T08:51:29.970Z,2492.00
2018-07-26T08:52:29.928Z,2448.00
2018-07-26T08:53:29.921Z,2364.00
2018-07-26T08:54:29.906Z,2284.00
2018-07-26T08:55:29.927Z,2220.00
2018-07-26T08:56:29.914Z,2176.00
2018-07-26T08:57:29.911Z,2148.00
2018-07-26T08:58:29.865Z,2120.00
2018-07-26T08:59:29.850Z,2096.00
2018-07-26T09:00:29.848Z,2080.00
2018-07-26T09:01:29.831Z,2044.00
2018-07-26T09:02:29.863Z,2008.00
2018-07-26T09:03:29.809Z,1964.00
2018-07-26T09:04:29.806Z,1932.00
2018-07-26T09:05:29.791Z,1920.00
2018-07-26T09:06:29.808Z,1912.00
2018-07-26T09:07:29.765Z,1908.00
2018-07-26T09:08:29.759Z,1912.00
2018-07-26T09:09:29.748Z,1920.00
2018-07-26T09:10:29.746Z,1948.00
2018-07-26T09:11:29.772Z,2036.00
2018-07-26T09:12:29.789Z,2132.00
2018-07-26T09:13:29.783Z,2120.00
2018-07-26T09:14:29.692Z,2068.00
2018-07-26T09:15:29.711Z,2012.00
2018-07-26T09:16:29.721Z,1944.00
2018-07-26T09:17:29.666Z,1888.00
2018-07-26T09:18:29.649Z,1880.00
2018-07-26T09:19:29.641Z,1892.00
2018-07-26T09:20:29.639Z,1892.00
2018-07-26T09:21:29.647Z,1880.00
2018-07-26T09:22:29.610Z,1880.00
2018-07-26T09:23:29.596Z,1888.00
2018-07-26T09:24:29.643Z,1896.00
2018-07-26T09:25:29.608Z,1912.00
2018-07-26T09:26:29.563Z,1924.00
2018-07-26T09:27:29.553Z,1928.00
2018-07-26T09:28:29.561Z,1928.00
2018-07-26T09:29:29.533Z,1932.00
2018-07-26T09:30:29.552Z,1936.00
2018-07-26T09:31:29.511Z,1944.00
2018-07-26T09:32:29.500Z,1944.00
2018-07-26T09:33:29.488Z,1944.00
2018-07-26T09:34:29.511Z,1952.00
2018-07-26T09:35:29.552Z,1964.00
2018-07-26T09:36:29.476Z,1964.00
2018-07-26T09:37:29.481Z,1960.00
2018-07-26T09:38:29.439Z,1956.00
2018-07-26T09:39:29.427Z,1948.00
2018-07-26T09:40:29.416Z,1952.00
2018-07-26T09:41:29.457Z,1968.00
2018-07-26T09:42:29.401Z,1984.00
2018-07-26T09:43:29.426Z,1988.00
2018-07-26T09:44:29.377Z,1996.00
2018-07-26T09:45:29.371Z,2000.00
2018-07-26T09:46:29.393Z,2012.00
2018-07-26T09:47:29.401Z,2028.00
2018-07-26T09:48:29.340Z,2032.00
2018-07-26T09:49:29.334Z,2036.00
2018-07-26T09:50:29.352Z,2036.00
2018-07-26T09:51:29.299Z,2040.00
2018-07-26T09:52:29.334Z,2052.00
2018-07-26T09:53:29.288Z,2056.00
2018-07-26T09:54:29.278Z,2056.00
2018-07-26T09:55:29.297Z,2052.00
2018-07-26T09:56:29.256Z,2056.00
2018-07-26T09:57:29.246Z,2064.00
2018-07-26T09:58:29.237Z,2076.00
2018-07-26T09:59:29.219Z,2084.00
2018-07-26T10:00:29.268Z,2096.00
2018-07-26T10:01:29.196Z,2108.00
2018-07-26T10:02:29.186Z,2120.00
2018-07-26T10:03:29.173Z,2132.00
2018-07-26T10:04:29.191Z,2152.00
2018-07-26T10:05:29.153Z,2156.00
2018-07-26T10:06:29.144Z,2180.00
2018-07-26T10:07:29.167Z,2204.00
2018-07-26T10:08:29.166Z,2232.00
2018-07-26T10:09:29.111Z,2256.00
2018-07-26T10:10:29.112Z,2272.00
2018-07-26T10:11:29.114Z,2280.00
2018-07-26T10:12:29.127Z,2288.00
2018-07-26T10:13:29.102Z,2296.00
2018-07-26T10:14:29.097Z,2308.00
2018-07-26T10:15:29.049Z,2308.00
2018-07-26T10:16:29.032Z,2316.00
2018-07-26T10:17:29.031Z,2336.00
2018-07-26T10:18:29.015Z,2344.00
2018-07-26T10:19:29.053Z,2368.00
2018-07-26T10:20:28.992Z,2392.00
2018-07-26T10:21:28.986Z,2420.00
2018-07-26T10:22:28.976Z,2432.00
2018-07-26T10:23:28.965Z,2440.00
2018-07-26T10:24:28.990Z,2448.00
2018-07-26T10:25:28.944Z,2452.00
2018-07-26T10:26:28.969Z,2460.00
2018-07-26T10:27:28.925Z,2484.00
2018-07-26T10:28:28.918Z,2492.00
2018-07-26T10:29:28.975Z,2520.00
2018-07-26T10:30:28.898Z,2532.00
2018-07-26T10:31:28.879Z,2548.00
2018-07-26T10:32:28.871Z,2564.00
2018-07-26T10:33:28.863Z,2572.00
2018-07-26T10:34:28.890Z,2588.00
2018-07-26T10:35:28.877Z,2592.00
2018-07-26T10:36:28.831Z,2596.00
2018-07-26T10:37:28.819Z,2624.00
2018-07-26T10:38:28.813Z,2676.00
2018-07-26T10:39:28.808Z,2712.00
2018-07-26T10:40:28.832Z,2728.00
2018-07-26T10:41:28.780Z,2720.00
2018-07-26T10:42:28.766Z,2720.00
2018-07-26T10:43:28.773Z,2720.00
2018-07-26T10:44:28.762Z,2728.00
2018-07-26T10:45:28.882Z,2736.00
2018-07-26T10:46:28.730Z,2732.00
2018-07-26T10:47:28.716Z,2740.00
2018-07-26T10:48:28.726Z,2760.00
2018-07-26T10:49:28.705Z,2768.00
2018-07-26T10:50:28.737Z,2780.00
2018-07-26T10:51:28.677Z,2792.00
2018-07-26T10:52:28.663Z,2808.00
2018-07-26T10:53:28.668Z,2844.00
2018-07-26T10:54:28.647Z,2852.00
2018-07-26T10:55:28.676Z,2876.00
2018-07-26T10:56:28.622Z,2888.00
2018-07-26T10:57:28.626Z,2896.00
2018-07-26T10:58:28.608Z,2916.00
2018-07-26T10:59:28.596Z,2932.00
2018-07-26T11:00:28.622Z,2936.00
2018-07-26T11:01:28.580Z,2952.00
2018-07-26T11:02:28.596Z,2960.00
2018-07-26T11:03:28.557Z,2964.00
2018-07-26T11:04:28.565Z,2968.00
2018-07-26T11:05:28.539Z,2980.00
2018-07-26T11:06:28.553Z,2988.00
2018-07-26T11:07:28.515Z,3008.00
2018-07-26T11:08:28.509Z,3008.00
2018-07-26T11:09:28.532Z,3016.00
2018-07-26T11:10:28.567Z,3008.00
2018-07-26T11:11:28.472Z,3024.00
2018-07-26T11:12:28.486Z,3036.00
2018-07-26T11:13:28.454Z,3040.00
2018-07-26T11:14:28.474Z,3064.00
2018-07-26T11:15:28.435Z,3084.00
2018-07-26T11:16:28.473Z,3084.00
2018-07-26T11:17:28.454Z,3092.00
2018-07-26T11:18:28.398Z,3096.00
2018-07-26T11:19:28.389Z,3096.00
2018-07-26T11:20:28.384Z,3096.00
2018-07-26T11:21:28.379Z,3092.00
2018-07-26T11:22:28.394Z,3116.00
2018-07-26T11:23:28.351Z,3152.00
2018-07-26T11:24:28.347Z,3184.00
2018-07-26T11:25:28.365Z,3184.00
2018-07-26T11:26:28.322Z,3176.00
2018-07-26T11:27:28.338Z,3184.00
2018-07-26T11:28:28.338Z,3216.00
2018-07-26T11:29:28.288Z,3200.00
2018-07-26T11:30:28.275Z,3248.00
2018-07-26T11:31:28.304Z,3276.00
2018-07-26T11:32:28.318Z,3304.00
2018-07-26T11:33:28.245Z,3332.00
2018-07-26T11:34:28.244Z,3296.00
2018-07-26T11:35:28.256Z,3268.00
2018-07-26T11:36:28.209Z,3264.00
2018-07-26T11:37:28.216Z,3328.00
2018-07-26T11:38:28.221Z,3376.00
2018-07-26T11:39:28.177Z,3392.00
2018-07-26T11:40:28.170Z,3376.00
2018-07-26T11:41:28.202Z,3332.00
2018-07-26T11:42:28.183Z,3332.00
2018-07-26T11:43:28.182Z,3352.00
2018-07-26T11:44:28.152Z,3376.00
2018-07-26T11:45:28.119Z,3400.00
2018-07-26T11:46:28.104Z,3420.00
2018-07-26T11:47:28.098Z,3440.00
2018-07-26T11:48:28.138Z,3468.00
2018-07-26T11:49:28.075Z,3484.00
2018-07-26T11:50:28.061Z,3500.00
2018-07-26T11:51:28.048Z,3496.00
2018-07-26T11:52:28.042Z,3496.00
2018-07-26T11:53:28.068Z,3528.00
2018-07-26T11:54:28.026Z,3568.00
2018-07-26T11:55:28.014Z,3592.00
2018-07-26T11:56:27.997Z,3620.00
2018-07-26T11:57:27.989Z,3664.00
2018-07-26T11:58:28.017Z,3696.00
2018-07-26T11:59:27.963Z,3732.00
2018-07-26T12:00:28.001Z,3760.00
2018-07-26T12:01:27.943Z,3792.00
2018-07-26T12:02:27.964Z,3852.00
2018-07-26T12:03:27.960Z,3956.00
2018-07-26T12:04:27.915Z,4192.00
2018-07-26T12:05:28.045Z,3992.00
2018-07-26T12:06:27.899Z,4568.00
2018-07-26T12:07:27.881Z,4944.00
2018-07-26T12:08:27.870Z,5112.00
2018-07-26T12:09:27.895Z,4956.00
2018-07-26T12:10:27.854Z,4932.00
2018-07-26T12:11:27.841Z,5016.00
2018-07-26T12:12:27.833Z,5020.00
2018-07-26T12:13:27.814Z,4992.00
2018-07-26T12:14:27.861Z,5156.00
2018-07-26T12:15:27.882Z,4572.00
2018-07-26T12:16:27.790Z,4832.00
2018-07-26T12:17:27.776Z,4932.00
2018-07-26T12:18:27.807Z,4780.00
2018-07-26T12:19:27.756Z,4808.00
2018-07-26T12:20:27.751Z,4848.00
2018-07-26T12:21:27.739Z,4888.00
2018-07-26T12:22:27.787Z,4896.00
2018-07-26T12:23:27.717Z,4720.00
2018-07-26T12:24:28.296Z,4608.00
2018-07-26T12:25:27.700Z,4400.00
2018-07-26T12:26:27.682Z,4612.00
2018-07-26T12:27:27.727Z,4916.00
2018-07-26T12:28:27.700Z,5192.00
2018-07-26T12:29:27.658Z,5224.00
2018-07-26T12:30:27.645Z,5424.00